Time;durP1;ratioP1;P1;durP2;ratioP2;P2;SDS_P1;SDS_P2;PMS_P1;PMS_P2;Temp;Humidity;BMP_temperature;BMP_pressure;BME280_temperature;BME280_humidity;BME280_pressure;Samples;Min_cycle;Max_cycle;Signal;HPM_P1;HPM_P2
2023/05/08 00:00:26;;;;;;;6.20;4.32;;;9.00;84.40;;;;;;5000575;28;20018;-72
2023/05/08 00:02:52;;;;;;;6.35;4.20;;;9.10;84.30;;;;;;4990443;28;20046;-72
2023/05/08 00:05:17;;;;;;;6.38;4.32;;;9.00;84.30;;;;;;4987716;28;20034;-72
2023/05/08 00:07:43;;;;;;;5.80;3.97;;;9.00;84.00;;;;;;4991736;28;20464;-72
2023/05/08 00:10:09;;;;;;;6.72;4.80;;;8.90;84.60;;;;;;4986523;28;20034;-72
2023/05/08 00:12:35;;;;;;;7.97;4.93;;;8.80;84.60;;;;;;4989255;28;20053;-72
2023/05/08 00:15:02;;;;;;;6.18;4.47;;;8.90;84.60;;;;;;4991365;28;20022;-72
2023/05/08 00:17:27;;;;;;;4.90;3.72;;;8.80;84.80;;;;;;4987428;28;20038;-72
2023/05/08 00:19:53;;;;;;;6.90;4.75;;;8.80;84.70;;;;;;4988006;28;20375;-72
2023/05/08 00:22:18;;;;;;;6.30;4.22;;;8.90;84.20;;;;;;4984676;28;20019;-72
2023/05/08 00:24:44;;;;;;;7.97;5.47;;;8.80;84.50;;;;;;4987362;28;20041;-72
2023/05/08 00:27:09;;;;;;;6.72;5.25;;;8.80;84.40;;;;;;4987526;28;20034;-72
2023/05/08 00:29:35;;;;;;;7.38;5.50;;;8.80;84.40;;;;;;4998632;28;20136;-72
2023/05/08 00:32:01;;;;;;;6.72;5.32;;;8.80;84.40;;;;;;4993528;28;20396;-72
2023/05/08 00:34:27;;;;;;;7.82;5.22;;;8.70;84.50;;;;;;4978754;28;20474;-72
2023/05/08 00:36:52;;;;;;;7.43;5.60;;;8.70;84.70;;;;;;4982756;28;20054;-72
2023/05/08 00:39:18;;;;;;;9.10;5.95;;;8.70;84.40;;;;;;4970340;28;20035;-72
2023/05/08 00:41:43;;;;;;;7.13;5.60;;;8.70;84.40;;;;;;4984042;28;20033;-72
2023/05/08 00:44:09;;;;;;;6.78;5.55;;;8.70;84.50;;;;;;4989288;28;20068;-72
2023/05/08 00:46:35;;;;;;;11.30;5.78;;;8.60;84.80;;;;;;4997255;28;20034;-72
2023/05/08 00:49:02;;;;;;;9.68;5.50;;;8.60;85.00;;;;;;4988069;28;20471;-72
2023/05/08 00:51:28;;;;;;;10.23;5.95;;;8.60;84.80;;;;;;4978499;28;20049;-71
2023/05/08 00:53:54;;;;;;;7.32;5.50;;;8.50;85.00;;;;;;4990444;28;20038;-72
2023/05/08 00:56:21;;;;;;;7.63;5.40;;;8.50;85.20;;;;;;4987326;28;20026;-72
2023/05/08 00:58:47;;;;;;;8.65;5.85;;;8.50;85.10;;;;;;4993906;28;20038;-72
2023/05/08 01:01:13;;;;;;;7.20;5.40;;;8.40;85.40;;;;;;4989681;28;20454;-71
2023/05/08 01:03:39;;;;;;;6.57;5.13;;;8.40;85.60;;;;;;4988756;28;20042;-72
2023/05/08 01:06:05;;;;;;;6.82;5.07;;;8.30;85.60;;;;;;4989064;28;20502;-72
2023/05/08 01:08:31;;;;;;;7.72;5.88;;;8.20;86.10;;;;;;4974011;28;20477;-72
2023/05/08 01:11:09;;;;;;;8.70;5.95;;;8.20;86.20;;;;;;4991731;28;20032;-72
2023/05/08 01:14:04;;;;;;;8.23;5.95;;;8.20;86.40;;;;;;4993692;28;20030;-72
2023/05/08 01:16:44;;;;;;;8.45;5.25;;;8.10;86.50;;;;;;4991857;28;20049;-72
2023/05/08 01:19:41;;;;;;;7.78;5.53;;;8.20;86.60;;;;;;4992670;28;20109;-71
2023/05/08 01:22:38;;;;;;;6.75;4.93;;;8.20;86.70;;;;;;4989199;28;20399;-72
2023/05/08 01:25:32;;;;;;;7.05;5.28;;;8.10;86.80;;;;;;4992268;28;20030;-72
2023/05/08 01:28:35;;;;;;;7.97;5.30;;;8.10;86.80;;;;;;4992921;28;20426;-72
2023/05/08 01:31:38;;;;;;;7.65;5.18;;;8.10;86.80;;;;;;4987662;28;20601;-72
2023/05/08 01:34:25;;;;;;;8.38;5.38;;;8.00;87.10;;;;;;5005777;28;20034;-71
2023/05/08 01:36:57;;;;;;;6.68;5.15;;;7.90;87.30;;;;;;4989873;28;20030;-72
2023/05/08 01:39:38;;;;;;;7.90;5.57;;;8.00;87.20;;;;;;4986159;28;20533;-72
2023/05/08 01:42:22;;;;;;;7.03;5.45;;;7.90;87.10;;;;;;4987552;28;20110;-72
2023/05/08 01:44:53;;;;;;;6.82;5.03;;;7.80;87.20;;;;;;4991567;28;20191;-72
2023/05/08 01:47:22;;;;;;;7.82;5.32;;;7.80;87.20;;;;;;4990574;28;20041;-71
2023/05/08 01:49:55;;;;;;;8.95;4.93;;;7.80;87.00;;;;;;4990297;28;20482;-72
2023/05/08 01:52:30;;;;;;;7.30;5.45;;;7.80;86.90;;;;;;4989169;28;20530;-72
2023/05/08 01:55:04;;;;;;;6.50;5.03;;;7.80;86.80;;;;;;4986171;28;20031;-72
2023/05/08 01:57:33;;;;;;;6.57;5.03;;;7.80;86.80;;;;;;4991256;28;20034;-72
2023/05/08 02:00:01;;;;;;;8.40;5.55;;;7.80;86.60;;;;;;4992573;28;20030;-71
2023/05/08 02:02:30;;;;;;;8.10;5.22;;;7.80;86.30;;;;;;4981737;28;20026;-72
2023/05/08 02:04:57;;;;;;;6.28;4.80;;;7.80;86.30;;;;;;4989237;28;20080;-72
2023/05/08 02:07:23;;;;;;;6.60;4.82;;;7.70;86.60;;;;;;4971633;28;20164;-71
2023/05/08 02:09:50;;;;;;;8.05;5.15;;;7.70;86.50;;;;;;4983682;28;20038;-71
2023/05/08 02:12:16;;;;;;;6.70;5.13;;;7.60;86.80;;;;;;4997994;28;20068;-72
2023/05/08 02:14:44;;;;;;;6.75;4.88;;;7.60;86.60;;;;;;4992485;28;20460;-71
2023/05/08 02:17:14;;;;;;;6.30;4.95;;;7.60;86.60;;;;;;4996757;28;20046;-72
2023/05/08 02:19:40;;;;;;;7.15;5.10;;;7.50;87.00;;;;;;4989652;28;20030;-72
2023/05/08 02:22:08;;;;;;;8.85;5.53;;;7.60;86.60;;;;;;4995662;28;20035;-72
2023/05/08 02:24:35;;;;;;;8.63;5.05;;;7.60;86.30;;;;;;4990152;28;20097;-72
2023/05/08 02:27:01;;;;;;;7.15;5.13;;;7.60;86.50;;;;;;4990321;28;20093;-72
2023/05/08 02:29:28;;;;;;;6.13;4.50;;;7.50;86.70;;;;;;4992186;28;20047;-72
2023/05/08 02:31:55;;;;;;;7.65;4.63;;;7.40;86.90;;;;;;4991799;28;20031;-72
2023/05/08 02:34:23;;;;;;;7.80;5.22;;;7.40;87.10;;;;;;4991972;28;20084;-72
2023/05/08 02:36:50;;;;;;;6.95;4.70;;;7.30;87.10;;;;;;4987596;28;20027;-72
2023/05/08 02:39:17;;;;;;;6.72;5.10;;;7.30;87.30;;;;;;4987042;28;20415;-72
2023/05/08 02:41:43;;;;;;;6.82;5.30;;;7.30;87.40;;;;;;4988825;28;20022;-72
2023/05/08 02:44:09;;;;;;;7.47;5.38;;;7.20;87.30;;;;;;4986919;28;20437;-71
2023/05/08 02:46:52;;;;;;;7.95;5.65;;;7.30;87.20;;;;;;4989201;28;20030;-71
2023/05/08 02:49:31;;;;;;;7.07;5.20;;;7.20;87.10;;;;;;4978621;28;20467;-71
2023/05/08 02:52:16;;;;;;;8.10;5.55;;;7.20;87.30;;;;;;4996577;28;20030;-71
2023/05/08 02:54:54;;;;;;;8.68;5.40;;;7.10;87.20;;;;;;4985205;28;20026;-71
2023/05/08 02:57:42;;;;;;;7.68;5.93;;;7.20;87.20;;;;;;4989764;28;20130;-71
2023/05/08 03:00:21;;;;;;;9.15;5.28;;;7.10;87.20;;;;;;4986825;28;20037;-71
2023/05/08 03:02:54;;;;;;;7.25;5.22;;;7.20;86.90;;;;;;4971080;28;20053;-73
2023/05/08 03:05:29;;;;;;;9.57;5.70;;;7.20;87.00;;;;;;4990890;28;20038;-71
2023/05/08 03:07:58;;;;;;;6.90;5.15;;;7.10;86.90;;;;;;5003642;28;20022;-71
2023/05/08 03:10:30;;;;;;;7.75;5.60;;;7.10;87.40;;;;;;4979010;28;20030;-72
2023/05/08 03:12:57;;;;;;;7.70;5.57;;;7.10;87.30;;;;;;4980367;28;20034;-71
2023/05/08 03:15:36;;;;;;;7.50;5.60;;;7.10;87.20;;;;;;4996495;28;20030;-73
2023/05/08 03:18:06;;;;;;;7.28;5.10;;;7.00;87.20;;;;;;4986993;28;20436;-74
2023/05/08 03:20:37;;;;;;;7.25;5.20;;;7.00;87.50;;;;;;4987288;28;20475;-71
2023/05/08 03:23:04;;;;;;;;;;;6.90;87.40;;;;;;4991038;28;20034;-71
2023/05/08 03:25:31;;;;;;;7.75;5.15;;;6.90;87.60;;;;;;4990016;28;19920;-71
2023/05/08 03:27:58;;;;;;;7.53;5.18;;;6.90;87.70;;;;;;4988356;28;20340;-71
2023/05/08 03:30:25;;;;;;;8.93;5.85;;;6.90;87.60;;;;;;4994052;28;20047;-71
2023/05/08 03:32:53;;;;;;;7.85;5.45;;;6.90;87.50;;;;;;4988271;28;20037;-70
2023/05/08 03:35:18;;;;;;;7.30;4.93;;;6.80;87.60;;;;;;4964845;28;20057;-71
2023/05/08 03:37:44;;;;;;;7.88;4.95;;;6.80;88.00;;;;;;4995078;28;20455;-71
2023/05/08 03:40:10;;;;;;;9.20;5.50;;;6.80;88.00;;;;;;4981882;28;20455;-71
2023/05/08 03:42:37;;;;;;;6.88;5.15;;;6.80;87.80;;;;;;4987227;28;20038;-71
2023/05/08 03:45:03;;;;;;;7.78;5.50;;;6.70;88.20;;;;;;4986386;28;20033;-71
2023/05/08 03:47:30;;;;;;;7.72;5.50;;;6.60;88.30;;;;;;4985740;28;20459;-71
2023/05/08 03:49:56;;;;;;;7.30;5.30;;;6.60;88.30;;;;;;4986647;28;20072;-71
2023/05/08 03:52:22;;;;;;;7.47;5.53;;;6.70;88.20;;;;;;4989988;28;20034;-71
2023/05/08 03:54:47;;;;;;;7.43;5.60;;;6.70;88.40;;;;;;4992426;28;20382;-71
2023/05/08 03:57:13;;;;;;;7.43;5.53;;;6.70;88.10;;;;;;4988873;28;20042;-71
2023/05/08 03:59:59;;;;;;;8.02;6.10;;;6.70;88.10;;;;;;4985484;28;20366;-71
2023/05/08 04:02:35;;;;;;;8.52;5.75;;;6.70;88.10;;;;;;4986568;28;20019;-71
2023/05/08 04:05:24;;;;;;;9.07;6.25;;;6.80;87.90;;;;;;4977036;28;20169;-71
2023/05/08 04:07:53;;;;;;;7.88;5.32;;;6.70;88.10;;;;;;4979298;28;20050;-72
2023/05/08 04:10:28;;;;;;;9.05;6.45;;;6.80;87.90;;;;;;4987434;28;20033;-71
2023/05/08 04:13:03;;;;;;;7.03;5.18;;;6.90;87.60;;;;;;4999261;28;20034;-71
2023/05/08 04:15:30;;;;;;;7.60;5.85;;;6.90;87.50;;;;;;4987236;28;20642;-71
2023/05/08 04:18:03;;;;;;;7.25;5.70;;;6.90;87.40;;;;;;4989277;28;20030;-71
2023/05/08 04:20:30;;;;;;;8.13;5.90;;;6.90;87.20;;;;;;4987428;28;20027;-71
2023/05/08 04:22:57;;;;;;;12.52;6.03;;;7.00;87.10;;;;;;4987988;28;20383;-71
2023/05/08 04:25:23;;;;;;;8.35;6.20;;;7.00;87.10;;;;;;4990055;28;20033;-72
2023/05/08 04:27:50;;;;;;;7.22;5.43;;;7.00;87.10;;;;;;4989325;28;20045;-70
2023/05/08 04:30:16;;;;;;;8.00;5.43;;;7.00;87.20;;;;;;4988570;28;20399;-74
2023/05/08 04:32:42;;;;;;;9.07;5.53;;;7.00;86.90;;;;;;4988052;28;20028;-75
2023/05/08 04:35:08;;;;;;;8.27;5.78;;;7.10;86.70;;;;;;4993643;28;20352;-76
2023/05/08 04:37:34;;;;;;;9.68;5.93;;;7.10;86.80;;;;;;4984956;28;20030;-76
2023/05/08 04:40:00;;;;;;;8.27;5.55;;;7.10;86.80;;;;;;4990341;28;20122;-75
2023/05/08 04:42:26;;;;;;;9.10;5.65;;;7.10;86.70;;;;;;4991771;28;20037;-76
2023/05/08 04:44:53;;;;;;;7.53;5.78;;;7.10;86.60;;;;;;4992439;28;20371;-75
2023/05/08 04:47:19;;;;;;;6.80;5.18;;;7.30;86.20;;;;;;4990574;28;20046;-75
2023/05/08 04:49:44;;;;;;;8.50;5.40;;;7.20;86.30;;;;;;4991968;28;20383;-74
2023/05/08 04:52:10;;;;;;;7.18;4.97;;;7.30;86.10;;;;;;4969928;28;20097;-76
2023/05/08 04:54:36;;;;;;;8.38;5.38;;;7.30;85.80;;;;;;4991521;28;20084;-75
2023/05/08 04:57:01;;;;;;;9.32;6.05;;;7.40;85.50;;;;;;4982988;28;20084;-76
2023/05/08 04:59:28;;;;;;;8.63;5.10;;;7.40;85.10;;;;;;4988314;28;20456;-74
2023/05/08 05:01:54;;;;;;;8.43;5.55;;;7.50;85.20;;;;;;4987761;28;20037;-74
2023/05/08 05:04:21;;;;;;;8.43;5.80;;;7.50;84.90;;;;;;4990295;28;20069;-75
2023/05/08 05:06:46;;;;;;;7.90;5.28;;;7.60;85.00;;;;;;4988294;28;20419;-76
2023/05/08 05:09:12;;;;;;;9.65;5.40;;;7.60;84.30;;;;;;4990700;28;20030;-74
2023/05/08 05:11:37;;;;;;;8.00;5.05;;;7.60;84.20;;;;;;4996718;28;20042;-73
2023/05/08 05:14:03;;;;;;;7.63;5.32;;;7.70;84.40;;;;;;4989758;28;20027;-73
2023/05/08 05:16:28;;;;;;;8.18;5.30;;;7.70;84.40;;;;;;4986669;28;20038;-73
2023/05/08 05:18:54;;;;;;;9.95;5.60;;;7.80;84.30;;;;;;4989196;28;20463;-74
2023/05/08 05:21:19;;;;;;;7.18;4.82;;;7.80;83.70;;;;;;4993081;28;20019;-73
2023/05/08 05:23:45;;;;;;;7.15;4.90;;;7.90;84.00;;;;;;4987152;28;20032;-74
2023/05/08 05:26:10;;;;;;;8.18;5.18;;;8.00;83.50;;;;;;4994068;28;20031;-73
2023/05/08 05:28:36;;;;;;;9.38;5.38;;;8.00;83.10;;;;;;4991315;28;20475;-73
2023/05/08 05:31:01;;;;;;;9.05;5.28;;;8.00;83.30;;;;;;4992766;28;20042;-73
2023/05/08 05:33:27;;;;;;;8.45;5.55;;;8.10;83.30;;;;;;4988980;28;20038;-76
2023/05/08 05:35:52;;;;;;;7.78;5.57;;;8.10;83.40;;;;;;4988448;28;20472;-73
2023/05/08 05:38:18;;;;;;;6.63;4.97;;;8.20;82.90;;;;;;4991772;28;20061;-76
2023/05/08 05:40:43;;;;;;;8.20;5.07;;;8.30;82.90;;;;;;4992719;28;20038;-73
2023/05/08 05:43:09;;;;;;;7.75;4.90;;;8.30;82.60;;;;;;4990982;28;20387;-76
2023/05/08 05:45:35;;;;;;;6.95;4.88;;;8.40;82.10;;;;;;4986143;28;20070;-76
2023/05/08 05:48:01;;;;;;;8.10;5.28;;;8.40;82.20;;;;;;4990217;28;20041;-76
2023/05/08 05:50:27;;;;;;;6.75;4.45;;;8.60;82.00;;;;;;4989583;28;20030;-76
2023/05/08 05:52:53;;;;;;;8.23;5.32;;;8.60;81.20;;;;;;4990785;28;20479;-76
2023/05/08 05:55:18;;;;;;;6.85;5.10;;;8.80;81.20;;;;;;4993754;28;20022;-75
2023/05/08 05:57:44;;;;;;;6.03;4.50;;;8.90;81.30;;;;;;4989896;28;20045;-75
2023/05/08 06:00:10;;;;;;;6.65;4.57;;;9.00;80.50;;;;;;4991559;28;20022;-76
2023/05/08 06:02:35;;;;;;;7.88;5.18;;;9.10;80.70;;;;;;4989908;28;20030;-76
2023/05/08 06:05:01;;;;;;;6.32;4.47;;;9.10;79.90;;;;;;4992441;28;20053;-76
2023/05/08 06:07:27;;;;;;;7.28;4.93;;;9.20;79.60;;;;;;4993588;28;20505;-75
2023/05/08 06:09:53;;;;;;;7.13;4.85;;;9.20;79.50;;;;;;4989437;28;20432;-76
2023/05/08 06:12:19;;;;;;;7.75;5.03;;;9.40;80.10;;;;;;4993015;28;20026;-75
2023/05/08 06:14:44;;;;;;;6.85;4.78;;;9.60;80.20;;;;;;4991104;28;20030;-73
2023/05/08 06:17:10;;;;;;;6.13;4.68;;;9.60;79.40;;;;;;4987680;28;20038;-73
2023/05/08 06:19:35;;;;;;;7.80;4.95;;;9.60;79.20;;;;;;4989789;28;20034;-74
2023/05/08 06:22:01;;;;;;;6.93;4.90;;;9.80;78.30;;;;;;4988934;28;20026;-74
2023/05/08 06:24:27;;;;;;;5.78;4.72;;;10.00;78.00;;;;;;4990486;28;20088;-74
2023/05/08 06:26:52;;;;;;;6.85;4.82;;;10.10;77.90;;;;;;4970499;28;20042;-74
2023/05/08 06:29:18;;;;;;;8.85;5.22;;;10.20;78.70;;;;;;4986828;28;20387;-74
2023/05/08 06:31:43;;;;;;;5.78;4.38;;;10.40;77.40;;;;;;4991391;28;20058;-74
2023/05/08 06:34:09;;;;;;;6.85;4.90;;;10.20;76.40;;;;;;4988652;28;20030;-74
2023/05/08 06:36:35;;;;;;;7.13;4.60;;;10.50;77.50;;;;;;4990644;28;20025;-74
2023/05/08 06:39:03;;;;;;;9.18;5.00;;;10.80;76.40;;;;;;4989091;28;20014;-74
2023/05/08 06:41:28;;;;;;;7.90;5.10;;;10.70;76.30;;;;;;4990918;28;20034;-75
2023/05/08 06:43:54;;;;;;;6.43;4.82;;;10.90;75.30;;;;;;4990365;28;20030;-74
2023/05/08 06:46:20;;;;;;;8.32;4.95;;;11.00;75.20;;;;;;4991677;28;20367;-74
2023/05/08 06:48:46;;;;;;;7.90;5.20;;;11.10;74.90;;;;;;4991900;28;20383;-74
2023/05/08 06:51:11;;;;;;;6.22;4.43;;;11.20;74.60;;;;;;4990002;28;20023;-74
2023/05/08 06:53:37;;;;;;;7.40;5.45;;;11.10;73.90;;;;;;4990527;28;20495;-74
2023/05/08 06:56:02;;;;;;;7.68;5.13;;;11.30;74.60;;;;;;4989855;28;20087;-74
2023/05/08 06:58:30;;;;;;;6.53;4.80;;;11.40;73.60;;;;;;4986942;28;20022;-73
2023/05/08 07:00:55;;;;;;;6.70;4.80;;;11.70;73.60;;;;;;4978543;28;20062;-73
2023/05/08 07:03:21;;;;;;;6.45;4.57;;;11.90;73.00;;;;;;4986892;28;20027;-75
2023/05/08 07:05:46;;;;;;;9.02;4.85;;;11.80;73.40;;;;;;4988297;28;20026;-74
2023/05/08 07:08:12;;;;;;;6.35;4.50;;;12.30;73.90;;;;;;4982252;28;20452;-74
2023/05/08 07:10:37;;;;;;;5.75;4.40;;;12.00;71.80;;;;;;4986795;28;20030;-74
2023/05/08 07:13:03;;;;;;;6.55;4.82;;;12.10;71.60;;;;;;4987270;28;20529;-74
2023/05/08 07:15:30;;;;;;;7.70;4.57;;;12.30;71.80;;;;;;4990387;28;20038;-74
2023/05/08 07:17:56;;;;;;;8.00;4.85;;;12.00;71.30;;;;;;4989440;28;20029;-74
2023/05/08 07:20:23;;;;;;;6.53;5.15;;;12.20;70.80;;;;;;4986867;28;20452;-74
2023/05/08 07:22:48;;;;;;;8.07;5.40;;;12.60;71.80;;;;;;4985731;28;20578;-75
2023/05/08 07:25:14;;;;;;;6.05;4.63;;;12.80;71.30;;;;;;4986334;28;20137;-74
2023/05/08 07:27:40;;;;;;;6.38;4.95;;;13.20;70.10;;;;;;4982319;28;20034;-75
2023/05/08 07:30:06;;;;;;;7.40;5.10;;;13.00;69.40;;;;;;4989417;28;20455;-75
2023/05/08 07:32:32;;;;;;;7.18;4.95;;;13.30;69.20;;;;;;4985689;28;20033;-73
2023/05/08 07:34:58;;;;;;;6.45;4.65;;;13.30;69.10;;;;;;4989576;28;20034;-75
2023/05/08 07:37:24;;;;;;;6.68;4.30;;;13.40;68.10;;;;;;4969857;28;20058;-76
2023/05/08 07:39:50;;;;;;;6.68;4.88;;;13.80;68.00;;;;;;4982662;28;20034;-74
2023/05/08 07:42:17;;;;;;;6.43;4.40;;;13.90;67.60;;;;;;4987941;28;20022;-75
2023/05/08 07:44:42;;;;;;;6.40;4.53;;;14.10;65.70;;;;;;4986097;28;20730;-75
2023/05/08 07:47:08;;;;;;;7.78;4.53;;;14.60;65.90;;;;;;4981660;28;20041;-75
2023/05/08 07:49:33;;;;;;;7.68;4.72;;;14.40;64.60;;;;;;4991208;28;20038;-75
2023/05/08 07:51:59;;;;;;;5.90;4.68;;;14.70;65.80;;;;;;4991433;28;20060;-75
2023/05/08 07:54:25;;;;;;;7.40;4.95;;;14.70;64.90;;;;;;4990610;28;20501;-75
2023/05/08 07:56:50;;;;;;;7.97;4.72;;;14.80;64.10;;;;;;4990587;28;20026;-74
2023/05/08 07:59:16;;;;;;;5.82;4.45;;;15.00;64.70;;;;;;4990808;28;20026;-74
2023/05/08 08:01:45;;;;;;;6.22;4.00;;;14.70;64.70;;;;;;4990207;28;20030;-74
2023/05/08 08:04:11;;;;;;;7.82;4.53;;;15.30;65.20;;;;;;4990682;28;20030;-74
2023/05/08 08:06:37;;;;;;;8.35;4.93;;;15.20;63.60;;;;;;4989262;28;20061;-74
2023/05/08 08:09:02;;;;;;;6.32;4.20;;;15.30;63.20;;;;;;4992189;28;20038;-75
2023/05/08 08:11:28;;;;;;;7.28;4.18;;;15.40;64.10;;;;;;4992316;28;20034;-74
2023/05/08 08:13:53;;;;;;;8.60;4.43;;;15.80;64.60;;;;;;4989070;28;20344;-74
2023/05/08 08:16:19;;;;;;;6.50;4.45;;;14.90;63.70;;;;;;4990748;28;20070;-74
2023/05/08 08:18:44;;;;;;;9.32;4.75;;;15.20;65.60;;;;;;4986017;28;20045;-75
2023/05/08 08:21:10;;;;;;;8.02;4.65;;;15.00;64.40;;;;;;4988661;28;20030;-75
2023/05/08 08:23:36;;;;;;;6.85;4.35;;;14.60;65.70;;;;;;4987110;28;20486;-75
2023/05/08 08:26:01;;;;;;;7.68;5.13;;;14.40;67.20;;;;;;4989694;28;20029;-75
2023/05/08 08:28:26;;;;;;;9.38;4.72;;;14.20;66.10;;;;;;4985786;28;20442;-75
2023/05/08 08:30:52;;;;;;;8.90;4.75;;;14.10;66.10;;;;;;4986223;28;20070;-74
2023/05/08 08:33:17;;;;;;;7.40;5.35;;;14.60;67.00;;;;;;4983105;28;20463;-75
2023/05/08 08:35:43;;;;;;;6.40;4.60;;;14.10;65.90;;;;;;4983823;28;20050;-75
2023/05/08 08:38:09;;;;;;;6.97;4.70;;;14.60;65.80;;;;;;4990487;28;20024;-75
2023/05/08 08:40:41;;;;;;;6.55;4.85;;;15.50;64.40;;;;;;4984578;28;20471;-75
2023/05/08 08:43:07;;;;;;;8.65;4.82;;;16.00;63.20;;;;;;4986165;28;20476;-75
2023/05/08 08:45:32;;;;;;;7.05;4.80;;;15.70;61.70;;;;;;4985310;28;20038;-75
2023/05/08 08:48:01;;;;;;;7.55;5.15;;;15.30;63.50;;;;;;4992448;28;20030;-75
2023/05/08 08:50:34;;;;;;;9.18;5.22;;;15.40;63.90;;;;;;4982160;28;20042;-75
2023/05/08 08:53:20;;;;;;;6.75;5.38;;;15.20;63.80;;;;;;4965410;28;20039;-75
2023/05/08 08:55:49;;;;;;;7.88;4.95;;;15.40;63.10;;;;;;4989127;28;20058;-74
2023/05/08 08:58:23;;;;;;;6.75;4.90;;;15.80;63.50;;;;;;4988305;28;20014;-74
2023/05/08 09:00:49;;;;;;;6.53;4.47;;;15.70;60.90;;;;;;4988134;28;20062;-74
2023/05/08 09:03:15;;;;;;;8.38;5.10;;;16.40;61.60;;;;;;4978363;28;20169;-75
2023/05/08 09:05:44;;;;;;;5.32;3.95;;;16.80;59.50;;;;;;4981600;28;20084;-75
2023/05/08 09:08:09;;;;;;;6.30;4.28;;;16.80;59.10;;;;;;4984866;28;20467;-75
2023/05/08 09:10:35;;;;;;;6.65;4.80;;;15.90;59.60;;;;;;4986968;28;20041;-74
2023/05/08 09:13:02;;;;;;;6.25;4.55;;;15.10;61.30;;;;;;4988476;28;20031;-74
2023/05/08 09:15:28;;;;;;;7.20;4.70;;;14.90;62.70;;;;;;4986799;28;20475;-75
2023/05/08 09:17:53;;;;;;;6.53;4.55;;;15.00;64.40;;;;;;4985522;28;20034;-74
2023/05/08 09:20:19;;;;;;;8.73;4.57;;;15.00;64.00;;;;;;4982475;28;20445;-75
2023/05/08 09:22:45;;;;;;;7.93;4.88;;;15.40;62.60;;;;;;4985653;28;20423;-74
2023/05/08 09:25:11;;;;;;;8.40;4.50;;;16.00;63.90;;;;;;4991189;28;20022;-75
2023/05/08 09:27:37;;;;;;;6.63;4.30;;;16.00;60.50;;;;;;4991444;28;20045;-75
2023/05/08 09:30:07;;;;;;;8.13;4.60;;;16.90;61.30;;;;;;4992013;28;20061;-74
2023/05/08 09:32:36;;;;;;;8.95;4.88;;;17.20;59.10;;;;;;4993076;28;20018;-75
2023/05/08 09:35:03;;;;;;;6.18;4.25;;;17.50;58.90;;;;;;4989508;28;20105;-75
2023/05/08 09:37:29;;;;;;;6.88;4.50;;;17.50;57.30;;;;;;4987036;28;20042;-75
2023/05/08 09:40:19;;;;;;;6.20;4.10;;;16.80;57.60;;;;;;4992012;28;20034;-75
2023/05/08 09:42:46;;;;;;;6.07;4.40;;;16.40;59.20;;;;;;4992294;28;20037;-75
2023/05/08 09:45:25;;;;;;;10.02;4.60;;;16.40;60.30;;;;;;4993460;28;20037;-73
2023/05/08 09:47:51;;;;;;;7.85;4.05;;;16.30;60.80;;;;;;4989343;28;20536;-74
2023/05/08 09:50:16;;;;;;;6.55;3.95;;;16.40;59.70;;;;;;4995620;28;20046;-75
2023/05/08 09:52:46;;;;;;;6.63;4.40;;;16.40;59.50;;;;;;4990847;28;20038;-75
2023/05/08 09:55:12;;;;;;;7.35;4.13;;;16.60;60.50;;;;;;4985875;28;20117;-75
2023/05/08 09:57:40;;;;;;;8.02;4.03;;;16.50;59.70;;;;;;4989973;28;20188;-75
2023/05/08 10:00:13;;;;;;;5.13;3.75;;;16.20;59.30;;;;;;4990933;28;20018;-75
2023/05/08 10:02:40;;;;;;;8.00;4.15;;;16.50;58.50;;;;;;5006204;28;20036;-76
2023/05/08 10:05:34;;;;;;;5.40;3.83;;;17.10;58.20;;;;;;4994421;28;20057;-74
2023/05/08 10:08:25;;;;;;;5.55;3.97;;;17.50;56.70;;;;;;4989121;28;20455;-74
2023/05/08 10:10:50;;;;;;;5.93;4.18;;;17.40;56.90;;;;;;4991035;28;20426;-75
2023/05/08 10:13:16;;;;;;;7.00;4.05;;;16.90;57.10;;;;;;4990117;28;20053;-74
2023/05/08 10:15:43;;;;;;;6.30;3.97;;;17.10;58.80;;;;;;4989066;28;20153;-76
2023/05/08 10:18:10;;;;;;;5.90;3.80;;;17.30;57.60;;;;;;4979110;28;20038;-75
2023/05/08 10:20:41;;;;;;;7.13;3.95;;;17.70;58.80;;;;;;4980587;28;20399;-74
2023/05/08 10:23:10;;;;;;;6.18;3.92;;;18.00;55.80;;;;;;4982987;28;20092;-75
2023/05/08 10:25:42;;;;;;;7.15;3.40;;;18.50;56.00;;;;;;4991149;28;20387;-76
2023/05/08 10:28:45;;;;;;;5.40;3.70;;;18.60;55.60;;;;;;4985210;28;20133;-74
2023/05/08 10:31:13;;;;;;;6.05;3.67;;;17.90;55.80;;;;;;4985607;28;20038;-71
2023/05/08 10:33:41;;;;;;;5.28;3.60;;;18.50;53.70;;;;;;4987118;28;20030;-74
2023/05/08 10:36:08;;;;;;;4.82;3.53;;;19.40;54.20;;;;;;4987205;28;20137;-74
2023/05/08 10:38:36;;;;;;;5.50;3.35;;;19.70;51.70;;;;;;4985315;28;20078;-73
2023/05/08 10:41:01;;;;;;;5.75;3.55;;;19.60;50.70;;;;;;4986472;28;20106;-74
2023/05/08 10:43:29;;;;;;;4.90;3.47;;;19.70;51.60;;;;;;4992862;28;20105;-74
2023/05/08 10:45:56;;;;;;;5.95;3.40;;;19.40;51.80;;;;;;4986261;28;20029;-74
2023/05/08 10:48:30;;;;;;;5.90;3.28;;;19.30;51.60;;;;;;4991582;28;20370;-74
2023/05/08 10:51:09;;;;;;;5.53;3.70;;;18.70;53.40;;;;;;4982586;28;20026;-74
2023/05/08 10:53:55;;;;;;;5.65;3.40;;;18.00;53.30;;;;;;4979938;28;20018;-74
2023/05/08 10:56:26;;;;;;;6.53;3.33;;;17.80;56.00;;;;;;4987206;28;20037;-74
2023/05/08 10:58:56;;;;;;;4.28;3.17;;;17.60;55.40;;;;;;4989393;28;20029;-74
2023/05/08 11:01:22;;;;;;;5.15;3.75;;;17.70;55.60;;;;;;4977553;28;21894;-74
2023/05/08 11:03:51;;;;;;;6.75;3.17;;;18.20;54.20;;;;;;4986739;28;20027;-74
2023/05/08 11:06:37;;;;;;;4.80;3.20;;;19.80;54.50;;;;;;4979925;28;20470;-74
2023/05/08 11:09:02;;;;;;;5.60;3.20;;;20.10;48.90;;;;;;4979126;28;20042;-74
2023/05/08 11:11:34;;;;;;;5.97;3.00;;;19.80;51.90;;;;;;4984579;28;20088;-74
2023/05/08 11:14:05;;;;;;;4.30;3.13;;;20.10;50.10;;;;;;4983434;28;20121;-74
2023/05/08 11:16:53;;;;;;;4.93;3.13;;;19.80;49.20;;;;;;4981708;28;20109;-74
2023/05/08 11:19:20;;;;;;;5.18;3.20;;;19.80;51.70;;;;;;4988362;28;20033;-74
2023/05/08 11:22:25;;;;;;;6.10;3.33;;;19.70;51.10;;;;;;4978742;28;20027;-74
2023/05/08 11:25:05;;;;;;;4.55;2.70;;;20.00;50.90;;;;;;4992287;28;20092;-74
2023/05/08 11:27:54;;;;;;;3.72;2.50;;;19.50;48.70;;;;;;4989370;28;20933;-74
2023/05/08 11:30:24;;;;;;;4.47;2.53;;;19.10;50.30;;;;;;4985058;28;20673;-74
2023/05/08 11:33:02;;;;;;;4.15;2.60;;;19.20;50.50;;;;;;4988312;28;20309;-74
2023/05/08 11:35:52;;;;;;;5.30;2.85;;;19.60;49.70;;;;;;4994990;28;20022;-74
2023/05/08 11:38:24;;;;;;;5.80;2.92;;;20.50;50.00;;;;;;4985119;28;21352;-74
2023/05/08 11:40:56;;;;;;;6.13;2.60;;;20.80;46.30;;;;;;4988312;28;20086;-73
2023/05/08 11:43:31;;;;;;;4.82;2.47;;;20.90;45.60;;;;;;4972751;28;20038;-74
2023/05/08 11:46:02;;;;;;;4.88;2.40;;;21.10;46.80;;;;;;4984874;28;20030;-73
2023/05/08 11:48:28;;;;;;;4.20;2.83;;;21.00;45.10;;;;;;4989867;28;20497;-74
2023/05/08 11:50:54;;;;;;;4.22;2.40;;;21.70;45.50;;;;;;4989589;28;20034;-74
2023/05/08 11:53:20;;;;;;;3.20;2.15;;;21.80;43.20;;;;;;4989318;28;20072;-74
2023/05/08 11:55:50;;;;;;;5.70;2.35;;;21.60;43.80;;;;;;4986886;28;20351;-74
2023/05/08 11:58:16;;;;;;;5.82;2.33;;;22.20;42.50;;;;;;4983860;28;20472;-74
2023/05/08 12:00:44;;;;;;;3.88;2.60;;;23.10;44.20;;;;;;4985945;28;20033;-74
2023/05/08 12:03:20;;;;;;;3.25;2.10;;;24.20;41.40;;;;;;4986530;28;20049;-74
2023/05/08 12:05:47;;;;;;;2.65;2.10;;;23.30;39.10;;;;;;4983416;28;20030;-74
2023/05/08 12:08:14;;;;;;;2.95;2.10;;;23.10;41.30;;;;;;4994026;28;20034;-74
2023/05/08 12:10:46;;;;;;;3.30;2.13;;;21.90;40.50;;;;;;4989303;28;20026;-74
2023/05/08 12:13:25;;;;;;;2.60;2.10;;;22.20;42.10;;;;;;4991448;28;20038;-74
2023/05/08 12:15:53;;;;;;;3.30;2.27;;;22.40;42.90;;;;;;4984051;28;20050;-74
2023/05/08 12:18:20;;;;;;;4.43;2.30;;;21.80;41.50;;;;;;4985053;28;20490;-74
2023/05/08 12:20:51;;;;;;;4.80;2.22;;;22.60;42.80;;;;;;4985486;28;20077;-73
2023/05/08 12:23:16;;;;;;;4.05;2.20;;;22.10;42.00;;;;;;4983631;28;20026;-74
2023/05/08 12:25:42;;;;;;;5.80;2.33;;;22.40;41.90;;;;;;4987613;28;20034;-74
2023/05/08 12:28:08;;;;;;;4.55;2.58;;;22.00;42.10;;;;;;4982500;28;20052;-74
2023/05/08 12:30:35;;;;;;;3.03;2.05;;;22.70;39.40;;;;;;4973084;28;20055;-74
2023/05/08 12:33:01;;;;;;;4.03;2.38;;;23.40;40.00;;;;;;4985872;28;20026;-74
2023/05/08 12:35:27;;;;;;;4.88;2.20;;;23.10;40.30;;;;;;4992262;28;20451;-74
2023/05/08 12:37:53;;;;;;;2.78;2.17;;;23.40;37.60;;;;;;4989005;28;20038;-74
2023/05/08 12:40:46;;;;;;;3.65;2.17;;;23.10;38.20;;;;;;4959591;28;20027;-74
2023/05/08 12:43:12;;;;;;;5.35;2.10;;;23.70;38.80;;;;;;4977589;28;20077;-74
2023/05/08 12:45:39;;;;;;;5.22;2.40;;;23.30;38.40;;;;;;4990887;28;20476;-74
2023/05/08 12:48:15;;;;;;;5.53;2.17;;;23.00;38.10;;;;;;4982593;28;22207;-74
2023/05/08 12:50:45;;;;;;;2.85;2.03;;;22.50;39.80;;;;;;4989649;28;20034;-74
2023/05/08 12:53:15;;;;;;;2.37;1.97;;;23.40;38.10;;;;;;4992197;28;20364;-74
2023/05/08 12:55:51;;;;;;;3.90;2.05;;;23.80;38.10;;;;;;4993779;28;20344;-74
2023/05/08 12:58:17;;;;;;;3.03;2.20;;;24.10;37.80;;;;;;4991598;28;20035;-74
2023/05/08 13:00:48;;;;;;;3.55;1.95;;;23.80;38.90;;;;;;4976537;28;20409;-74
2023/05/08 13:03:25;;;;;;;2.88;2.03;;;24.30;37.30;;;;;;4991739;28;20026;-74